createdAt,value
2019-02-17T07:02:17.824Z,7.93
2019-02-17T07:05:06.717Z,6.60
2019-02-17T07:07:37.793Z,4.93
2019-02-17T07:10:09.107Z,4.83
2019-02-17T07:12:40.081Z,7.80
2019-02-17T07:15:11.250Z,8.53
2019-02-17T07:17:42.327Z,6.17
2019-02-17T07:20:13.989Z,6.37
2019-02-17T07:22:44.893Z,5.73
2019-02-17T07:25:18.446Z,6.20
2019-02-17T07:27:51.383Z,7.57
2019-02-17T07:30:25.877Z,6.30
2019-02-17T07:32:57.824Z,6.67
2019-02-17T07:35:30.797Z,7.27
2019-02-17T07:38:03.769Z,7.23
2019-02-17T07:40:35.159Z,6.77
2019-02-17T07:43:05.770Z,8.03
2019-02-17T07:45:36.398Z,7.83
2019-02-17T07:48:07.163Z,8.83
2019-02-17T07:50:37.652Z,6.37
2019-02-17T07:53:08.199Z,8.47
2019-02-17T07:55:38.698Z,7.70
2019-02-17T07:58:09.198Z,10.17
2019-02-17T08:00:40.045Z,8.53
2019-02-17T08:03:10.533Z,7.37
2019-02-17T08:05:41.278Z,7.67
2019-02-17T08:08:12.006Z,6.97
2019-02-17T08:10:45.441Z,6.85
2019-02-17T08:13:16.120Z,8.43
2019-02-17T08:15:47.232Z,6.35
2019-02-17T08:18:17.653Z,6.62
2019-02-17T08:20:48.831Z,6.62
2019-02-17T08:23:19.309Z,7.78
2019-02-17T08:25:50.264Z,8.45
2019-02-17T08:28:21.269Z,8.08
2019-02-17T08:30:52.272Z,8.05
2019-02-17T08:33:23.541Z,9.18
2019-02-17T08:35:54.672Z,7.30
2019-02-17T08:38:25.700Z,10.55
2019-02-17T08:40:56.723Z,10.63
2019-02-17T08:43:27.737Z,11.18
2019-02-17T08:45:58.991Z,9.50
2019-02-17T08:48:30.352Z,8.98
2019-02-17T08:51:01.447Z,10.63
2019-02-17T08:53:32.826Z,9.50
2019-02-17T08:56:03.855Z,7.53
2019-02-17T08:58:34.865Z,8.48
2019-02-17T09:01:05.866Z,10.48
2019-02-17T09:03:37.163Z,17.62
2019-02-17T09:06:08.438Z,11.45
2019-02-17T09:08:39.438Z,10.28
2019-02-17T09:11:10.493Z,8.50
2019-02-17T09:13:41.541Z,12.10
2019-02-17T09:16:12.582Z,10.08
2019-02-17T09:18:43.598Z,10.38
2019-02-17T09:21:15.652Z,9.85
2019-02-17T09:23:47.028Z,9.15
2019-02-17T09:26:18.021Z,11.75
2019-02-17T09:28:49.043Z,11.78
2019-02-17T09:31:20.086Z,9.38
2019-02-17T09:33:51.086Z,8.03
2019-02-17T09:36:22.128Z,10.30
2019-02-17T09:38:53.150Z,9.63
2019-02-17T09:41:24.178Z,7.50
2019-02-17T09:43:55.201Z,10.93
2019-02-17T09:46:26.249Z,9.65
2019-02-17T09:48:57.290Z,10.00
2019-02-17T09:51:28.334Z,12.30
2019-02-17T09:53:59.393Z,16.07
2019-02-17T09:56:30.434Z,18.87
2019-02-17T09:59:01.739Z,24.60
2019-02-17T10:01:32.792Z,10.85
2019-02-17T10:04:03.823Z,9.78
2019-02-17T10:06:34.878Z,7.30
2019-02-17T10:09:06.696Z,3.72
2019-02-17T10:11:37.730Z,4.30
2019-02-17T10:14:08.752Z,4.28
2019-02-17T10:16:39.782Z,3.30
2019-02-17T10:19:10.789Z,4.12
2019-02-17T10:21:42.861Z,5.45
2019-02-17T10:24:14.238Z,6.78
2019-02-17T10:26:45.264Z,4.28
2019-02-17T10:29:16.327Z,4.42
2019-02-17T10:31:47.634Z,4.95
2019-02-17T10:34:21.432Z,4.72
2019-02-17T10:36:52.480Z,5.10
2019-02-17T10:39:23.483Z,4.47
2019-02-17T10:41:54.520Z,6.35
2019-02-17T10:44:25.554Z,4.92
2019-02-17T10:46:56.574Z,5.83
2019-02-17T10:49:27.591Z,4.87
2019-02-17T10:51:58.640Z,5.08
2019-02-17T10:54:29.656Z,5.97
2019-02-17T10:57:00.740Z,7.00
2019-02-17T10:59:31.862Z,6.42
2019-02-17T11:02:02.931Z,6.40
2019-02-17T11:04:33.940Z,9.10
2019-02-17T11:07:04.949Z,5.08
2019-02-17T11:09:35.956Z,5.22
2019-02-17T11:12:06.988Z,6.03
2019-02-17T11:14:38.017Z,4.65
2019-02-17T11:17:09.286Z,4.42
2019-02-17T11:19:40.403Z,4.58
2019-02-17T11:22:12.223Z,3.67
2019-02-17T11:24:43.269Z,5.85
2019-02-17T11:27:14.576Z,4.90
2019-02-17T11:29:45.576Z,3.22
2019-02-17T11:32:16.611Z,3.22
2019-02-17T11:34:47.613Z,3.42
2019-02-17T11:37:18.653Z,3.62
2019-02-17T11:39:49.813Z,4.53
2019-02-17T11:42:20.890Z,3.67
2019-02-17T11:44:51.913Z,3.42
2019-02-17T11:47:22.923Z,4.75
2019-02-17T11:49:53.926Z,3.12
2019-02-17T11:52:24.972Z,4.10
2019-02-17T11:54:56.013Z,3.62
2019-02-17T11:57:27.054Z,3.65
2019-02-17T11:59:58.055Z,4.47
2019-02-17T12:02:29.213Z,4.42
2019-02-17T12:05:00.318Z,2.65
2019-02-17T12:07:31.515Z,3.45
2019-02-17T12:10:02.525Z,5.22
2019-02-17T12:12:33.536Z,2.27
2019-02-17T12:15:06.626Z,4.85
2019-02-17T12:17:37.722Z,2.17
2019-02-17T12:20:33.016Z,2.83
2019-02-17T12:42:35.949Z,3.05
2019-02-17T12:45:17.971Z,2.62
2019-02-17T12:47:55.450Z,1.92
2019-02-17T12:50:44.051Z,1.92
2019-02-17T12:53:15.166Z,1.87
2019-02-17T12:55:46.453Z,2.80
2019-02-17T12:58:17.475Z,2.47
2019-02-17T13:00:48.484Z,18.25
2019-02-17T13:03:28.288Z,2.20
2019-02-17T13:05:52.217Z,2.65
2019-02-17T13:08:23.418Z,2.00
2019-02-17T13:10:54.411Z,2.12
2019-02-17T13:13:25.482Z,2.55
2019-02-17T13:15:56.502Z,1.82
2019-02-17T13:18:27.556Z,2.40
2019-02-17T13:20:58.619Z,1.65
2019-02-17T13:23:29.622Z,1.98
2019-02-17T13:26:00.687Z,1.98
2019-02-17T13:28:31.925Z,3.12
2019-02-17T13:31:02.990Z,1.92
2019-02-17T13:33:39.283Z,2.85
2019-02-17T13:36:07.229Z,2.72
2019-02-17T13:38:40.018Z,1.72
2019-02-17T13:41:11.375Z,2.72
2019-02-17T13:43:42.484Z,2.27
2019-02-17T13:46:13.602Z,2.42
2019-02-17T13:48:44.649Z,5.00
2019-02-17T13:51:15.686Z,2.00
2019-02-17T13:53:47.066Z,2.58
2019-02-17T13:56:18.079Z,2.65
2019-02-17T13:58:49.194Z,3.15
2019-02-17T14:01:20.279Z,2.10
2019-02-17T14:03:51.318Z,2.17
2019-02-17T14:06:22.335Z,2.10
2019-02-17T14:08:53.340Z,2.35
2019-02-17T14:11:24.399Z,2.75
2019-02-17T14:13:55.407Z,2.15
2019-02-17T14:16:26.458Z,1.50
2019-02-17T14:18:57.471Z,1.42
2019-02-17T14:21:28.480Z,1.00
2019-02-17T14:23:59.524Z,2.00
2019-02-17T14:26:30.518Z,3.17
2019-02-17T14:29:01.531Z,2.10
2019-02-17T14:31:32.658Z,1.10
2019-02-17T14:34:03.654Z,1.17
2019-02-17T14:36:34.801Z,0.75
2019-02-17T14:39:06.374Z,1.30
2019-02-17T14:41:37.381Z,0.70
2019-02-17T14:44:08.402Z,0.88
2019-02-17T14:46:39.581Z,1.00
2019-02-17T14:49:10.965Z,0.70
2019-02-17T14:51:42.136Z,0.60
2019-02-17T14:54:13.166Z,0.55
2019-02-17T14:56:44.577Z,2.05
2019-02-17T14:59:15.592Z,2.27
2019-02-17T15:01:46.934Z,2.12
2019-02-17T15:04:18.407Z,2.87
2019-02-17T15:06:49.778Z,3.60
2019-02-17T15:09:21.124Z,2.17
2019-02-17T15:11:55.968Z,9.58
2019-02-17T15:14:27.042Z,7.00
2019-02-17T15:16:58.120Z,4.67
2019-02-17T15:19:29.140Z,3.10
2019-02-17T15:22:00.520Z,4.87
2019-02-17T15:24:32.034Z,3.77
2019-02-17T15:27:03.124Z,3.40
2019-02-17T15:29:34.509Z,3.80
2019-02-17T15:32:05.818Z,3.60
2019-02-17T15:34:37.190Z,3.58
2019-02-17T15:37:08.518Z,4.85
2019-02-17T15:39:39.575Z,4.17
2019-02-17T15:42:10.875Z,3.87
2019-02-17T15:44:41.903Z,5.47
2019-02-17T15:47:12.945Z,4.92
2019-02-17T15:49:44.343Z,9.65
2019-02-17T15:52:15.423Z,9.45
2019-02-17T15:55:13.214Z,6.58
2019-02-17T15:57:50.150Z,6.62
2019-02-17T16:00:47.087Z,8.20
2019-02-17T16:03:18.224Z,8.63
2019-02-17T16:05:49.571Z,7.00
2019-02-17T16:08:20.194Z,6.60
2019-02-17T16:10:51.789Z,9.37
2019-02-17T16:13:23.575Z,8.43
2019-02-17T16:15:54.791Z,8.97
2019-02-17T16:18:25.429Z,8.37
2019-02-17T16:20:56.192Z,8.00
2019-02-17T16:23:27.167Z,7.67
2019-02-17T16:25:57.971Z,13.10
2019-02-17T16:28:31.373Z,10.93
2019-02-17T16:31:02.680Z,11.70
2019-02-17T16:33:34.102Z,71.70
2019-02-17T16:36:06.594Z,14.10
2019-02-17T16:38:37.481Z,12.63
2019-02-17T16:41:09.014Z,13.80
2019-02-17T16:43:39.984Z,12.23
2019-02-17T16:46:11.996Z,9.70
2019-02-17T16:48:43.216Z,12.33
2019-02-17T16:51:13.947Z,10.80
2019-02-17T16:53:46.172Z,11.93
2019-02-17T16:58:48.919Z,12.70
2019-02-17T17:01:20.590Z,10.90
2019-02-17T17:03:53.096Z,11.30
2019-02-17T17:06:25.668Z,13.30
2019-02-17T17:08:57.048Z,10.80
2019-02-17T17:11:32.198Z,12.67
2019-02-17T17:14:08.962Z,11.63
2019-02-17T17:16:39.556Z,18.57
2019-02-17T17:19:11.957Z,13.30
2019-02-17T17:21:45.159Z,13.27
2019-02-17T17:24:16.476Z,10.53
2019-02-17T17:26:49.348Z,10.80
2019-02-17T17:29:21.091Z,17.37
2019-02-17T17:31:52.069Z,11.30
2019-02-17T17:34:23.448Z,12.53
2019-02-17T17:36:54.581Z,13.53
2019-02-17T17:39:26.311Z,13.20
2019-02-17T17:41:59.912Z,12.50
2019-02-17T17:44:29.959Z,11.80
2019-02-17T17:47:03.064Z,10.90
2019-02-17T17:57:11.172Z,14.17
2019-02-17T17:59:42.718Z,10.83
2019-02-17T18:02:14.796Z,11.13
2019-02-17T18:04:47.054Z,15.70
2019-02-17T18:07:18.661Z,10.40
2019-02-17T18:09:50.556Z,12.17
2019-02-17T18:12:23.575Z,10.20
2019-02-17T18:14:55.091Z,10.77
2019-02-17T18:17:26.189Z,12.67
2019-02-17T18:19:57.327Z,12.87
2019-02-17T18:22:26.457Z,9.27
2019-02-17T18:24:57.486Z,11.60
2019-02-17T18:27:28.564Z,13.30
2019-02-17T18:30:00.731Z,11.97
2019-02-17T18:32:34.644Z,13.83
2019-02-17T18:35:07.579Z,12.27
2019-02-17T18:37:39.561Z,18.30
2019-02-17T18:40:20.896Z,15.60
2019-02-17T18:42:52.023Z,12.73
2019-02-17T18:45:28.247Z,14.57
2019-02-17T18:47:59.781Z,12.63
2019-02-17T18:50:32.651Z,12.47
2019-02-17T18:53:03.866Z,12.27
2019-02-17T18:55:35.442Z,11.93
2019-02-17T18:58:06.610Z,11.27
2019-02-17T19:00:37.924Z,11.63
2019-02-17T19:03:10.461Z,13.07
2019-02-17T19:05:42.634Z,8.10
2019-02-17T19:08:14.660Z,8.23
2019-02-17T19:10:49.745Z,10.10
2019-02-17T19:13:20.990Z,7.07
2019-02-17T19:15:55.586Z,12.87
2019-02-17T19:18:26.762Z,7.90
2019-02-17T19:20:58.176Z,8.43
2019-02-17T19:23:29.221Z,7.30
2019-02-17T19:26:03.076Z,7.07
2019-02-17T19:28:36.988Z,6.23
2019-02-17T19:31:14.905Z,7.43
2019-02-17T19:33:50.626Z,7.63
2019-02-17T19:36:33.725Z,7.20
2019-02-17T19:39:17.532Z,6.43
2019-02-17T19:41:56.901Z,4.90
2019-02-17T19:44:32.673Z,4.83
2019-02-17T19:50:17.770Z,2.53
2019-02-17T19:52:52.376Z,2.47
2019-02-17T19:55:23.806Z,2.73
2019-02-17T19:57:57.836Z,2.37
2019-02-17T20:00:33.622Z,1.57
2019-02-17T20:03:19.956Z,3.80
2019-02-17T20:05:59.469Z,2.80
2019-02-17T20:08:36.769Z,3.93
2019-02-17T20:11:08.751Z,2.87
2019-02-17T20:13:44.467Z,1.50
2019-02-17T20:16:17.327Z,1.80
2019-02-17T20:18:56.530Z,4.20
2019-02-17T20:21:34.542Z,7.77
2019-02-17T20:24:14.163Z,2.40
2019-02-17T20:26:49.477Z,2.93
2019-02-17T20:29:24.838Z,1.10
2019-02-17T20:32:01.688Z,1.07
2019-02-17T20:34:37.456Z,2.07
2019-02-17T20:37:12.964Z,2.90
2019-02-17T20:39:47.022Z,1.10
2019-02-17T20:42:25.446Z,2.10
2019-02-17T20:45:02.674Z,1.70
2019-02-17T20:47:49.106Z,3.13
2019-02-17T20:50:22.894Z,2.07
2019-02-17T20:52:57.864Z,1.63
2019-02-17T20:55:33.033Z,1.43
2019-02-17T20:58:12.398Z,3.13
2019-02-17T21:00:51.589Z,0.97
2019-02-17T21:03:33.627Z,1.60
2019-02-17T21:06:20.789Z,1.97
2019-02-17T21:09:21.363Z,1.00
2019-02-17T21:12:00.416Z,1.10
2019-02-17T21:14:40.283Z,1.10
2019-02-17T21:17:16.258Z,1.23
2019-02-17T21:19:48.596Z,0.87
2019-02-17T21:22:30.283Z,1.67
2019-02-17T21:25:10.330Z,1.37
2019-02-17T21:27:45.355Z,1.23
2019-02-17T21:30:23.458Z,3.50
2019-02-17T21:32:54.565Z,1.63
2019-02-17T21:35:27.461Z,1.30
2019-02-17T21:38:07.672Z,0.90
2019-02-17T21:40:52.091Z,2.83
2019-02-17T21:43:24.984Z,2.93
2019-02-17T21:46:00.346Z,1.47
2019-02-17T21:48:34.818Z,1.93
2019-02-17T21:54:26.553Z,3.20
2019-02-17T21:57:20.620Z,1.13
2019-02-17T22:03:05.942Z,1.33
2019-02-17T22:06:03.869Z,1.07
2019-02-17T22:08:37.152Z,2.00
2019-02-17T22:11:07.970Z,1.50
2019-02-17T22:13:39.145Z,1.33
2019-02-17T22:16:10.029Z,3.57
2019-02-17T22:18:40.689Z,1.63
2019-02-17T22:21:11.720Z,1.03
2019-02-17T22:23:42.475Z,1.83
2019-02-17T22:26:13.169Z,2.33
2019-02-17T22:28:44.383Z,1.17
2019-02-17T22:31:15.008Z,1.27
2019-02-17T22:33:45.702Z,1.93
2019-02-17T22:36:16.895Z,2.87
2019-02-17T22:38:47.554Z,1.50
2019-02-17T22:41:18.208Z,1.30
2019-02-17T22:43:51.452Z,2.90
2019-02-17T22:46:22.190Z,2.30
2019-02-17T22:48:53.508Z,2.23
2019-02-17T22:51:24.304Z,1.87
2019-02-17T22:53:55.428Z,1.83
2019-02-17T22:56:26.377Z,1.57
2019-02-17T22:58:57.131Z,2.73
2019-02-17T23:01:28.617Z,1.57
2019-02-17T23:04:01.184Z,3.27
2019-02-17T23:06:32.404Z,3.10
2019-02-17T23:09:04.337Z,1.63
2019-02-17T23:11:35.046Z,1.43
2019-02-17T23:14:05.797Z,2.47
2019-02-17T23:16:38.226Z,1.40
2019-02-17T23:19:10.651Z,4.33
2019-02-17T23:21:41.534Z,1.27
2019-02-17T23:24:12.475Z,1.53
2019-02-17T23:26:47.406Z,1.50
2019-02-17T23:29:18.135Z,2.00
2019-02-17T23:31:48.919Z,1.33
2019-02-17T23:34:19.676Z,1.63
2019-02-17T23:36:50.470Z,3.00
2019-02-17T23:39:21.730Z,1.33
2019-02-17T23:41:52.490Z,1.90
2019-02-17T23:44:23.199Z,2.57
2019-02-17T23:46:55.398Z,1.70
2019-02-17T23:49:26.064Z,1.27
2019-02-17T23:51:56.663Z,1.73
2019-02-17T23:54:27.569Z,1.93
2019-02-17T23:56:58.336Z,1.60
2019-02-17T23:59:29.090Z,1.90
